createdAt,value
2022-12-08T00:02:25.006Z,9.75
2022-12-08T00:07:26.632Z,8.95
2022-12-08T00:12:28.207Z,10.23
2022-12-08T00:17:29.694Z,8.82
2022-12-08T00:22:31.210Z,10.32
2022-12-08T00:27:32.689Z,10.35
2022-12-08T00:32:34.207Z,9.65
2022-12-08T00:37:35.657Z,9.00
2022-12-08T00:42:37.407Z,10.40
2022-12-08T00:47:38.946Z,10.70
2022-12-08T00:52:40.504Z,10.05
2022-12-08T00:57:41.962Z,9.38
2022-12-08T01:02:43.466Z,9.43
2022-12-08T01:07:44.918Z,10.13
2022-12-08T01:12:46.400Z,9.63
2022-12-08T01:17:47.869Z,9.15
2022-12-08T01:22:49.309Z,9.02
2022-12-08T01:27:52.366Z,9.63
2022-12-08T01:32:53.944Z,9.57
2022-12-08T01:37:55.488Z,9.10
2022-12-08T01:42:57.005Z,10.05
2022-12-08T01:48:02.533Z,9.75
2022-12-08T01:53:13.629Z,10.30
2022-12-08T01:58:29.931Z,10.95
2022-12-08T02:03:41.927Z,10.85
2022-12-08T02:08:43.851Z,11.45
2022-12-08T02:13:47.756Z,10.10
2022-12-08T02:24:55.543Z,12.13
2022-12-08T02:30:12.335Z,9.73
2022-12-08T02:35:44.853Z,9.82
2022-12-08T02:40:56.290Z,11.40
2022-12-08T02:46:11.350Z,10.93
2022-12-08T02:51:12.863Z,9.88
2022-12-08T02:56:43.465Z,11.13
2022-12-08T03:02:17.545Z,11.43
2022-12-08T03:07:32.020Z,11.45
2022-12-08T03:12:53.220Z,11.45
2022-12-08T03:17:59.070Z,11.55
2022-12-08T03:23:05.887Z,11.63
2022-12-08T03:28:07.643Z,15.00
2022-12-08T03:33:17.498Z,10.75
2022-12-08T03:43:20.508Z,10.95
2022-12-08T03:48:21.964Z,12.77
2022-12-08T03:53:23.430Z,13.88
2022-12-08T03:58:24.953Z,11.70
2022-12-08T04:03:26.512Z,11.45
2022-12-08T04:08:28.193Z,13.20
2022-12-08T04:13:29.745Z,11.48
2022-12-08T04:18:32.445Z,12.70
2022-12-08T04:23:33.888Z,10.40
2022-12-08T04:28:35.740Z,11.15
2022-12-08T04:33:37.570Z,10.18
2022-12-08T04:38:39.076Z,12.27
2022-12-08T04:43:40.585Z,12.05
2022-12-08T04:48:42.112Z,11.20
2022-12-08T04:53:46.662Z,11.52
2022-12-08T04:58:48.470Z,11.30
2022-12-08T05:03:49.909Z,11.05
2022-12-08T05:08:51.432Z,11.48
2022-12-08T05:13:53.000Z,11.25
2022-12-08T05:18:54.516Z,12.38
2022-12-08T05:23:55.984Z,12.43
2022-12-08T05:28:57.682Z,12.15
2022-12-08T05:34:02.935Z,12.13
2022-12-08T05:39:05.019Z,12.90
2022-12-08T05:44:06.849Z,13.02
2022-12-08T05:49:08.519Z,11.77
2022-12-08T05:54:10.699Z,11.60
2022-12-08T05:59:12.192Z,11.40
2022-12-08T06:04:13.649Z,10.15
2022-12-08T06:09:15.088Z,12.32
2022-12-08T06:14:16.571Z,10.80
2022-12-08T06:19:18.073Z,12.02
2022-12-08T06:24:19.583Z,11.43
2022-12-08T06:29:21.057Z,11.48
2022-12-08T06:34:22.492Z,12.02
2022-12-08T06:39:23.904Z,12.82
2022-12-08T06:44:25.538Z,11.05
2022-12-08T06:49:26.980Z,10.40
2022-12-08T06:54:28.573Z,10.18
2022-12-08T06:59:30.169Z,10.27
2022-12-08T07:04:31.658Z,10.18
2022-12-08T07:09:33.149Z,10.65
2022-12-08T07:14:34.655Z,9.95
2022-12-08T07:19:36.077Z,10.77
2022-12-08T07:24:37.496Z,9.38
2022-12-08T07:29:38.983Z,10.05
2022-12-08T07:34:40.487Z,10.82
2022-12-08T07:39:42.019Z,10.13
2022-12-08T07:44:43.539Z,10.68
2022-12-08T07:49:45.007Z,11.02
2022-12-08T07:54:47.299Z,11.00
2022-12-08T07:59:48.724Z,10.50
2022-12-08T08:04:50.823Z,10.85
2022-12-08T08:09:52.348Z,11.50
2022-12-08T08:14:53.752Z,11.30
2022-12-08T08:19:55.249Z,9.80
2022-12-08T08:24:56.740Z,11.75
2022-12-08T08:29:58.243Z,12.00
2022-12-08T08:34:59.950Z,12.77
2022-12-08T08:40:02.013Z,12.23
2022-12-08T08:45:04.242Z,12.50
2022-12-08T08:50:06.773Z,10.60
2022-12-08T08:55:08.888Z,12.23
2022-12-08T09:00:11.316Z,12.48
2022-12-08T09:05:12.817Z,11.40
2022-12-08T09:10:14.582Z,11.00
2022-12-08T09:15:16.147Z,10.40
2022-12-08T09:20:17.784Z,11.77
2022-12-08T09:25:19.219Z,11.30
2022-12-08T09:30:20.637Z,12.02
2022-12-08T09:35:22.068Z,11.88
2022-12-08T09:40:25.842Z,12.20
2022-12-08T09:45:33.138Z,11.57
2022-12-08T09:50:56.712Z,11.82
2022-12-08T09:56:21.688Z,12.80
2022-12-08T10:01:28.688Z,11.55
2022-12-08T10:06:39.390Z,11.18
2022-12-08T10:11:51.285Z,12.93
2022-12-08T10:16:58.308Z,11.10
2022-12-08T10:22:00.162Z,11.80
2022-12-08T10:27:02.328Z,12.80
2022-12-08T10:32:33.387Z,12.85
2022-12-08T10:37:35.552Z,14.75
2022-12-08T10:42:42.633Z,12.20
2022-12-08T10:48:09.003Z,12.57
2022-12-08T10:53:13.205Z,12.27
2022-12-08T10:58:41.031Z,11.82
2022-12-08T11:03:51.299Z,11.50
2022-12-08T11:08:58.230Z,12.32
2022-12-08T11:14:07.033Z,11.05
2022-12-08T11:19:26.760Z,11.07
2022-12-08T11:24:31.219Z,11.48
2022-12-08T11:29:35.664Z,10.00
2022-12-08T11:34:44.388Z,9.82
2022-12-08T11:39:50.317Z,9.37
2022-12-08T11:44:58.778Z,9.85
2022-12-08T11:50:21.838Z,9.57
2022-12-08T11:55:36.935Z,10.10
2022-12-08T12:00:40.439Z,10.15
2022-12-08T12:06:30.858Z,11.73
2022-12-08T12:11:53.192Z,11.13
2022-12-08T12:17:07.300Z,10.48
2022-12-08T12:22:16.044Z,11.07
2022-12-08T12:27:28.055Z,10.63
2022-12-08T12:32:45.481Z,9.93
2022-12-08T12:37:48.834Z,10.35
2022-12-08T12:42:56.427Z,12.02
2022-12-08T12:47:57.850Z,10.95
2022-12-08T12:53:17.322Z,10.00
2022-12-08T12:58:29.258Z,10.05
2022-12-08T13:03:30.832Z,9.32
2022-12-08T13:08:33.009Z,9.30
2022-12-08T13:13:35.106Z,9.48
2022-12-08T13:18:41.943Z,9.82
2022-12-08T13:24:04.865Z,8.23
2022-12-08T13:29:16.455Z,7.90
2022-12-08T13:34:32.891Z,7.70
2022-12-08T13:39:40.506Z,9.35
2022-12-08T13:45:19.814Z,9.35
2022-12-08T13:51:23.590Z,8.35
2022-12-08T14:01:18.830Z,8.98
2022-12-08T14:06:49.740Z,8.48
2022-12-08T14:11:56.517Z,10.00
2022-12-08T14:17:04.606Z,8.13
2022-12-08T14:22:11.463Z,8.88
2022-12-08T14:27:19.081Z,10.18
2022-12-08T14:32:30.292Z,9.43
2022-12-08T14:37:43.823Z,9.18
2022-12-08T14:43:04.870Z,9.18
2022-12-08T14:48:21.518Z,10.68
2022-12-08T14:53:23.727Z,10.55
2022-12-08T14:58:30.131Z,9.60
2022-12-08T15:03:32.516Z,9.43
2022-12-08T15:08:50.487Z,9.63
2022-12-08T15:13:53.375Z,10.10
2022-12-08T15:19:22.669Z,9.18
2022-12-08T15:24:27.300Z,9.45
2022-12-08T15:29:30.053Z,12.40
2022-12-08T15:34:31.573Z,11.23
2022-12-08T15:39:35.736Z,10.25
2022-12-08T15:44:37.208Z,22.38
2022-12-08T15:49:38.708Z,20.98
2022-12-08T15:54:40.200Z,12.60
2022-12-08T15:59:41.653Z,9.63
2022-12-08T16:10:07.833Z,10.88
2022-12-08T16:20:58.874Z,11.15
2022-12-08T16:26:20.462Z,10.75
2022-12-08T16:31:21.452Z,16.83
2022-12-08T16:36:24.429Z,15.18
2022-12-08T16:41:25.968Z,11.05
2022-12-08T16:46:27.423Z,11.27
2022-12-08T16:51:28.956Z,11.32
2022-12-08T16:56:33.177Z,10.35
2022-12-08T17:01:36.248Z,11.85
2022-12-08T17:06:37.886Z,12.45
2022-12-08T17:11:43.305Z,11.27
2022-12-08T17:16:45.818Z,11.10
2022-12-08T17:21:47.353Z,12.80
2022-12-08T17:26:49.113Z,13.32
2022-12-08T17:31:51.069Z,10.30
2022-12-08T17:36:52.667Z,12.40
2022-12-08T17:41:54.192Z,14.00
2022-12-08T17:46:55.641Z,12.63
2022-12-08T17:52:02.099Z,12.60
2022-12-08T17:57:03.901Z,9.95
2022-12-08T18:02:05.404Z,10.88
2022-12-08T18:07:06.939Z,10.55
2022-12-08T18:12:08.476Z,10.20
2022-12-08T18:17:09.985Z,9.60
2022-12-08T18:22:11.502Z,12.27
2022-12-08T18:27:13.368Z,11.88
2022-12-08T18:32:14.797Z,10.57
2022-12-08T18:37:16.521Z,10.25
2022-12-08T18:42:18.159Z,11.75
2022-12-08T18:47:19.562Z,11.65
2022-12-08T18:52:28.243Z,10.50
2022-12-08T18:57:33.180Z,11.65
2022-12-08T19:02:34.683Z,17.80
2022-12-08T19:07:36.711Z,13.13
2022-12-08T19:12:38.185Z,11.18
2022-12-08T19:17:39.785Z,11.02
2022-12-08T19:22:41.226Z,11.30
2022-12-08T19:27:42.653Z,12.48
2022-12-08T19:32:44.155Z,11.98
2022-12-08T19:37:46.619Z,13.02
2022-12-08T19:42:48.140Z,12.40
2022-12-08T19:47:49.667Z,12.25
2022-12-08T19:52:51.145Z,13.02
2022-12-08T19:57:53.566Z,12.63
2022-12-08T20:02:55.200Z,12.15
2022-12-08T20:07:56.956Z,13.27
2022-12-08T20:12:58.463Z,12.45
2022-12-08T20:17:59.901Z,12.00
2022-12-08T20:23:01.472Z,12.02
2022-12-08T20:28:03.063Z,11.35
2022-12-08T20:33:04.568Z,12.25
2022-12-08T20:38:06.073Z,12.20
2022-12-08T20:43:07.494Z,10.95
2022-12-08T20:48:09.048Z,13.77
2022-12-08T20:53:10.775Z,11.25
2022-12-08T20:58:12.564Z,12.15
2022-12-08T21:03:14.849Z,11.27
2022-12-08T21:08:17.320Z,12.32
2022-12-08T21:13:18.867Z,11.75
2022-12-08T21:18:21.151Z,11.25
2022-12-08T21:23:22.684Z,12.18
2022-12-08T21:28:24.142Z,12.10
2022-12-08T21:33:25.841Z,15.32
2022-12-08T21:38:27.407Z,12.52
2022-12-08T21:43:29.778Z,14.90
2022-12-08T21:48:31.456Z,18.35
2022-12-08T21:53:33.301Z,17.55
2022-12-08T21:58:35.035Z,15.95
2022-12-08T22:03:38.730Z,18.05
2022-12-08T22:08:45.291Z,14.25
2022-12-08T22:13:47.004Z,13.73
2022-12-08T22:18:48.472Z,12.50
2022-12-08T22:23:50.145Z,14.20
2022-12-08T22:28:51.660Z,12.98
2022-12-08T22:33:53.447Z,11.23
2022-12-08T22:38:55.283Z,12.10
2022-12-08T22:43:56.950Z,12.15
2022-12-08T22:48:58.715Z,12.05
2022-12-08T22:54:00.280Z,11.38
2022-12-08T22:59:01.939Z,12.40
2022-12-08T23:04:03.917Z,12.18
2022-12-08T23:09:06.318Z,11.18
2022-12-08T23:14:07.902Z,13.05
2022-12-08T23:19:09.876Z,11.93
2022-12-08T23:24:11.332Z,11.00
2022-12-08T23:29:12.872Z,12.75
2022-12-08T23:34:14.338Z,11.60
2022-12-08T23:39:16.796Z,11.05
2022-12-08T23:44:18.232Z,13.30
2022-12-08T23:49:19.853Z,12.57
2022-12-08T23:54:21.456Z,11.85
2022-12-08T23:59:23.051Z,11.98
